Time;durP1;ratioP1;P1;durP2;ratioP2;P2;SDS_P1;SDS_P2;PMS_P1;PMS_P2;Temp;Humidity;BMP_temperature;BMP_pressure;BME280_temperature;BME280_humidity;BME280_pressure;Samples;Min_cycle;Max_cycle;Signal;HPM_P1;HPM_P2
2023/05/30 00:02:30;;;;;;;7.68;2.65;;;;;;;9.82;100.00;102815.16;4978398;28;20127;-80
2023/05/30 00:05:14;;;;;;;5.28;2.25;;;;;;;9.81;100.00;102811.63;4978955;28;20401;-78
2023/05/30 00:07:58;;;;;;;5.57;2.22;;;;;;;9.79;100.00;102818.72;4995640;28;20064;-81
2023/05/30 00:10:42;;;;;;;3.67;2.05;;;;;;;9.79;100.00;102821.34;4993730;28;21119;-81
2023/05/30 00:13:28;;;;;;;4.90;2.55;;;;;;;9.80;100.00;102820.47;4992406;28;20081;-78
2023/05/30 00:16:13;;;;;;;6.45;2.67;;;;;;;9.78;100.00;102820.50;4991802;28;21761;-82
2023/05/30 00:19:01;;;;;;;5.30;2.38;;;;;;;9.75;100.00;102809.94;4995333;28;20043;-82
2023/05/30 00:21:45;;;;;;;6.00;2.45;;;;;;;9.74;100.00;102818.75;4981536;28;20040;-84
2023/05/30 00:24:31;;;;;;;4.72;2.20;;;;;;;9.73;100.00;102822.31;4995270;28;20052;-80
2023/05/30 00:27:17;;;;;;;5.47;2.40;;;;;;;9.73;100.00;102821.41;4993505;28;20045;-82
2023/05/30 00:30:01;;;;;;;6.68;1.88;;;;;;;9.73;100.00;102826.72;4993506;28;20141;-80
2023/05/30 00:32:45;;;;;;;4.88;2.20;;;;;;;9.71;100.00;102824.09;4977880;28;20036;-80
2023/05/30 00:35:29;;;;;;;6.10;2.40;;;;;;;9.71;100.00;102824.09;4993158;28;20960;-81
2023/05/30 00:38:14;;;;;;;3.55;2.40;;;;;;;9.71;100.00;102817.91;4979455;28;20361;-81
2023/05/30 00:40:58;;;;;;;7.90;2.50;;;;;;;9.72;100.00;102809.09;4977864;28;20061;-80
2023/05/30 00:43:43;;;;;;;5.78;2.60;;;;;;;9.74;100.00;102812.59;4992220;28;20045;-80
2023/05/30 00:46:29;;;;;;;3.90;2.35;;;;;;;9.73;100.00;102810.84;4977554;28;20056;-81
2023/05/30 00:49:13;;;;;;;4.53;2.80;;;;;;;9.73;100.00;102811.72;4993251;28;20049;-79
2023/05/30 00:51:58;;;;;;;4.80;2.42;;;;;;;9.72;100.00;102809.09;4993184;28;20068;-83
2023/05/30 00:54:44;;;;;;;6.53;2.38;;;;;;;9.70;100.00;102816.16;4992665;28;20045;-81
2023/05/30 00:57:33;;;;;;;6.57;2.63;;;;;;;9.68;100.00;102825.88;4977637;28;20291;-81
2023/05/30 01:00:18;;;;;;;3.95;2.25;;;;;;;9.64;100.00;102828.56;4977763;28;21807;-79
2023/05/30 01:03:02;;;;;;;7.82;2.67;;;;;;;9.60;100.00;102818.88;4990701;28;20120;-81
2023/05/30 01:05:47;;;;;;;6.80;2.50;;;;;;;9.59;100.00;102813.63;4978832;28;20040;-79
2023/05/30 01:08:32;;;;;;;5.75;2.30;;;;;;;9.58;100.00;102817.19;4976280;28;20056;-81
2023/05/30 01:11:43;;;;;;;7.93;2.33;;;;;;;9.57;100.00;102821.56;4992964;28;20048;-81
2023/05/30 01:14:37;;;;;;;3.63;2.30;;;;;;;9.56;100.00;102818.94;4976779;28;20103;-80
2023/05/30 01:17:27;;;;;;;4.50;2.05;;;;;;;9.57;100.00;102823.34;4977969;28;20052;-80
2023/05/30 01:20:16;;;;;;;3.83;1.92;;;;;;;9.59;100.00;102822.44;4990652;28;20128;-80
2023/05/30 01:23:20;;;;;;;5.00;2.15;;;;;;;9.60;100.00;102821.53;4992473;28;20397;-79
2023/05/30 01:26:19;;;;;;;6.10;2.65;;;;;;;9.57;100.00;102821.56;4993384;28;20076;-82
2023/05/30 01:29:04;;;;;;;5.63;2.40;;;;;;;9.57;100.00;102816.28;4991474;28;20036;-81
2023/05/30 01:31:49;;;;;;;2.78;2.15;;;;;;;9.58;100.00;102825.97;4989616;28;20302;-79
2023/05/30 01:34:33;;;;;;;5.53;2.30;;;;;;;9.58;100.00;102822.47;4975506;28;20576;-78
2023/05/30 01:37:17;;;;;;;7.22;2.33;;;;;;;9.59;100.00;102826.88;4978671;28;20566;-79
2023/05/30 01:40:02;;;;;;;5.20;2.40;;;;;;;9.59;100.00;102825.06;4992326;28;20072;-81
2023/05/30 01:42:49;;;;;;;5.43;2.15;;;;;;;9.60;100.00;102828.59;4989554;28;20150;-79
2023/05/30 01:45:52;;;;;;;8.52;2.55;;;;;;;9.63;100.00;102832.09;4981290;28;21070;-78
2023/05/30 01:48:40;;;;;;;4.80;2.40;;;;;;;9.67;100.00;102832.94;4988612;28;20112;-78
2023/05/30 01:51:38;;;;;;;8.43;2.75;;;;;;;9.69;100.00;102832.94;4976374;28;20176;-80
2023/05/30 01:54:23;;;;;;;6.95;2.33;;;;;;;9.70;100.00;102821.47;4988112;28;20064;-81
2023/05/30 01:57:16;;;;;;;7.43;2.25;;;;;;;9.70;100.00;102824.97;4992237;28;20405;-79
2023/05/30 02:00:00;;;;;;;6.35;2.40;;;;;;;9.71;100.00;102828.50;4976148;28;20128;-80
2023/05/30 02:02:45;;;;;;;6.10;2.53;;;;;;;9.71;100.00;102832.03;4974325;28;20044;-81
2023/05/30 02:05:29;;;;;;;5.57;2.35;;;;;;;9.70;100.00;102838.19;4964605;28;21985;-80
2023/05/30 02:08:13;;;;;;;5.30;2.40;;;;;;;9.72;100.00;102835.53;4992196;28;20052;-79
2023/05/30 02:10:57;;;;;;;6.53;2.15;;;;;;;9.71;100.00;102833.78;4991830;28;20773;-80
2023/05/30 02:13:41;;;;;;;9.90;3.03;;;;;;;9.73;100.00;102832.88;4974414;28;20075;-81
2023/05/30 02:16:25;;;;;;;5.63;2.25;;;;;;;9.75;100.00;102835.53;4988675;28;20073;-80
2023/05/30 02:19:12;;;;;;;5.05;2.60;;;;;;;9.76;100.00;102832.84;4971831;28;20499;-80
2023/05/30 02:21:56;;;;;;;9.32;2.88;;;;;;;9.76;100.00;102832.84;4974336;28;20180;-81
2023/05/30 02:24:40;;;;;;;8.02;2.58;;;;;;;9.77;100.00;102833.72;4975039;28;20125;-80
2023/05/30 02:27:24;;;;;;;6.28;2.35;;;;;;;9.77;100.00;102828.44;4991776;28;20779;-80
2023/05/30 02:30:09;;;;;;;5.82;2.45;;;;;;;9.77;100.00;102833.72;4990100;28;20048;-80
2023/05/30 02:32:53;;;;;;;6.13;2.58;;;;;;;9.77;100.00;102844.31;4989105;28;20052;-79
2023/05/30 02:35:37;;;;;;;5.25;2.28;;;;;;;9.81;100.00;102840.72;4974150;28;20107;-80
2023/05/30 02:38:21;;;;;;;9.98;3.20;;;;;;;9.82;100.00;102837.22;4976399;28;20168;-80
2023/05/30 02:41:05;;;;;;;9.77;2.80;;;;;;;9.83;100.00;102827.50;4990593;28;20681;-80
2023/05/30 02:43:49;;;;;;;3.65;2.03;;;;;;;9.84;100.00;102830.13;4990106;28;21626;-79
2023/05/30 02:46:34;;;;;;;4.80;2.20;;;;;;;9.84;100.00;102830.13;4993821;28;20052;-79
2023/05/30 02:49:19;;;;;;;5.75;2.13;;;;;;;9.84;100.00;102837.19;4995008;28;20096;-78
2023/05/30 02:52:03;;;;;;;5.57;2.10;;;;;;;9.87;100.00;102845.09;4980858;28;20088;-79
2023/05/30 02:54:48;;;;;;;9.50;2.40;;;;;;;9.86;100.00;102838.91;4996096;28;20169;-78
2023/05/30 02:57:32;;;;;;;5.15;2.17;;;;;;;9.87;100.00;102839.81;4978604;28;20511;-79
2023/05/30 03:00:16;;;;;;;4.20;2.13;;;;;;;9.88;100.00;102839.81;4981044;28;20049;-79
2023/05/30 03:03:01;;;;;;;4.68;2.15;;;;;;;9.90;100.00;102847.69;4979767;28;20096;-81
2023/05/30 03:05:46;;;;;;;4.18;2.45;;;;;;;9.88;100.00;102853.03;4977387;28;20056;-79
2023/05/30 03:08:31;;;;;;;7.50;2.97;;;;;;;9.88;100.00;102845.09;4978955;28;20041;-79
2023/05/30 03:11:15;;;;;;;3.17;1.92;;;;;;;9.90;100.00;102851.22;4979375;28;21308;-78
2023/05/30 03:13:59;;;;;;;8.20;2.83;;;;;;;9.90;100.00;102859.16;4978036;28;20052;-79
2023/05/30 03:16:43;;;;;;;7.40;2.17;;;;;;;9.92;100.00;102865.31;4995180;28;20083;-79
2023/05/30 03:19:27;;;;;;;5.20;2.60;;;;;;;9.91;100.00;102855.63;4994414;28;20492;-80
2023/05/30 03:22:14;;;;;;;6.47;2.22;;;;;;;9.93;100.00;102866.19;4992364;28;20044;-79
2023/05/30 03:24:58;;;;;;;6.22;2.50;;;;;;;9.91;100.00;102860.91;4973038;28;20040;-81
2023/05/30 03:27:49;;;;;;;6.28;2.33;;;;;;;9.92;100.00;102861.81;4990016;28;20218;-79
2023/05/30 03:30:33;;;;;;;7.72;2.58;;;;;;;9.95;100.00;102864.41;4995216;28;20087;-80
2023/05/30 03:33:17;;;;;;;5.65;2.10;;;;;;;9.96;100.00;102860.00;4993296;28;20084;-80
2023/05/30 03:36:02;;;;;;;7.93;2.55;;;;;;;9.96;100.00;102866.16;4979700;28;20441;-80
2023/05/30 03:38:47;;;;;;;7.00;2.70;;;;;;;9.97;100.00;102867.91;4993095;28;20060;-80
2023/05/30 03:41:31;;;;;;;10.30;2.55;;;;;;;9.95;100.00;102871.47;4992854;28;20045;-79
2023/05/30 03:44:15;;;;;;;9.32;2.65;;;;;;;9.96;100.00;102878.53;4993095;28;20496;-79
2023/05/30 03:46:59;;;;;;;7.85;2.33;;;;;;;9.95;100.00;102872.34;4989925;28;21490;-80
2023/05/30 03:49:43;;;;;;;6.28;2.38;;;;;;;9.95;100.00;102863.53;4994370;28;20088;-80
2023/05/30 03:52:29;;;;;;;5.10;2.78;;;;;;;9.97;100.00;102874.97;4993322;28;20206;-81
2023/05/30 03:55:13;;;;;;;7.55;2.92;;;;;;;9.96;100.00;102878.53;4980242;28;20057;-79
2023/05/30 03:57:57;;;;;;;6.55;2.63;;;;;;;9.96;100.00;102881.19;4990317;28;20896;-79
2023/05/30 04:00:42;;;;;;;9.35;2.80;;;;;;;9.96;100.00;102867.94;4976102;28;20060;-80
2023/05/30 04:03:28;;;;;;;7.72;2.70;;;;;;;9.96;100.00;102868.81;4979336;28;20112;-79
2023/05/30 04:06:13;;;;;;;7.63;2.60;;;;;;;9.99;100.00;102873.19;4993308;28;20079;-80
2023/05/30 04:08:57;;;;;;;7.55;2.65;;;;;;;10.00;100.00;102869.66;4994277;28;20056;-80
2023/05/30 04:11:40;;;;;;;6.25;2.65;;;;;;;10.01;100.00;102856.41;4993642;28;20519;-80
2023/05/30 04:14:24;;;;;;;6.63;2.15;;;;;;;10.03;100.00;102854.59;4994315;28;20040;-79
2023/05/30 04:17:08;;;;;;;5.93;2.42;;;;;;;10.05;100.00;102850.19;4972487;28;20672;-80
2023/05/30 04:19:53;;;;;;;6.47;2.50;;;;;;;10.09;100.00;102861.63;4976526;28;20127;-81
2023/05/30 04:22:37;;;;;;;6.63;2.40;;;;;;;10.11;100.00;102857.19;4973810;28;20056;-79
2023/05/30 04:25:21;;;;;;;4.95;2.22;;;;;;;10.15;100.00;102863.31;4992460;28;20056;-79
2023/05/30 04:28:06;;;;;;;7.38;2.30;;;;;;;10.17;100.00;102858.88;4964962;28;21059;-79
2023/05/30 04:30:50;;;;;;;7.45;2.53;;;;;;;10.18;100.00;102860.63;4977922;28;20045;-79
2023/05/30 04:33:35;;;;;;;5.95;2.50;;;;;;;10.18;100.00;102868.56;4992970;28;20155;-80
2023/05/30 04:36:22;;;;;;;5.53;2.15;;;;;;;10.20;100.00;102872.09;4992772;28;20064;-80
2023/05/30 04:39:09;;;;;;;5.18;2.20;;;;;;;10.24;100.00;102876.44;4977101;28;20060;-81
2023/05/30 04:41:54;;;;;;;6.25;2.38;;;;;;;10.25;100.00;102882.63;4992386;28;20140;-80
2023/05/30 04:44:39;;;;;;;8.45;2.38;;;;;;;10.27;100.00;102881.72;4992781;28;20137;-80
2023/05/30 04:47:24;;;;;;;6.55;2.38;;;;;;;10.30;100.00;102880.81;4991359;28;20151;-80
2023/05/30 04:50:09;;;;;;;5.68;2.63;;;;;;;10.31;100.00;102874.59;4992033;28;20188;-80
2023/05/30 04:52:54;;;;;;;7.70;2.38;;;;;;;10.33;100.00;102870.16;4992396;28;20237;-80
2023/05/30 04:55:39;;;;;;;6.47;2.47;;;;;;;10.38;100.00;102867.44;4995662;28;20180;-80
2023/05/30 04:58:23;;;;;;;8.70;2.25;;;;;;;10.39;100.00;102870.09;4997204;28;20096;-82
2023/05/30 05:01:10;;;;;;;7.00;2.65;;;;;;;10.41;100.00;102868.28;4992976;28;20060;-79
2023/05/30 05:03:54;;;;;;;5.80;2.28;;;;;;;10.39;100.00;102880.69;4990892;28;20125;-81
2023/05/30 05:06:38;;;;;;;5.18;2.17;;;;;;;10.42;100.00;102882.41;4992130;28;20127;-81
2023/05/30 05:09:24;;;;;;;6.97;2.08;;;;;;;10.40;100.00;102877.13;4993532;28;20127;-79
2023/05/30 05:12:08;;;;;;;6.38;2.15;;;;;;;10.41;100.00;102873.59;4991438;28;20072;-82
2023/05/30 05:14:54;;;;;;;4.43;1.67;;;;;;;10.39;100.00;102880.69;4991059;28;20044;-81
2023/05/30 05:17:38;;;;;;;3.33;2.20;;;;;;;10.38;100.00;102889.53;4977525;28;20053;-80
2023/05/30 05:20:22;;;;;;;5.35;2.10;;;;;;;10.35;100.00;102876.31;4992691;28;20164;-80
2023/05/30 05:23:06;;;;;;;6.15;1.80;;;;;;;10.35;100.00;102883.38;4990537;28;20055;-79
2023/05/30 05:25:50;;;;;;;6.03;2.10;;;;;;;10.34;100.00;102882.50;4977777;28;20112;-80
2023/05/30 05:28:34;;;;;;;3.80;1.77;;;;;;;10.38;100.00;102875.41;4991605;28;20061;-79
2023/05/30 05:31:18;;;;;;;6.57;2.03;;;;;;;10.42;100.00;102878.00;4989724;28;20061;-79
2023/05/30 05:34:02;;;;;;;5.40;2.28;;;;;;;10.45;100.00;102880.63;4990260;28;21700;-78
2023/05/30 05:36:46;;;;;;;4.25;2.10;;;;;;;10.46;100.00;102882.38;4976989;28;20048;-79
2023/05/30 05:39:31;;;;;;;4.50;2.00;;;;;;;10.48;100.00;102881.50;4990890;28;20056;-81
2023/05/30 05:42:15;;;;;;;5.22;1.60;;;;;;;10.45;100.00;102898.28;4991968;28;20208;-83
2023/05/30 05:45:00;;;;;;;4.50;1.98;;;;;;;10.42;100.00;102891.25;4991932;28;20104;-82
2023/05/30 05:47:44;;;;;;;3.33;1.77;;;;;;;10.48;100.00;102895.63;4990929;28;20047;-79
2023/05/30 05:50:29;;;;;;;3.38;1.65;;;;;;;10.47;100.00;102888.56;4977320;28;20056;-81
2023/05/30 05:53:13;;;;;;;3.28;2.00;;;;;;;10.48;100.00;102895.63;4991686;28;20104;-80
2023/05/30 05:55:57;;;;;;;3.33;2.03;;;;;;;10.50;100.00;102898.25;4976011;28;20057;-79
2023/05/30 05:58:42;;;;;;;2.33;1.42;;;;;;;10.55;100.00;102893.75;4991803;28;20233;-78
2023/05/30 06:01:26;;;;;;;4.45;1.77;;;;;;;10.56;100.00;102887.56;4990022;28;20827;-78
2023/05/30 06:04:11;;;;;;;3.45;1.70;;;;;;;10.59;100.00;102888.41;4991889;28;20064;-81
2023/05/30 06:06:55;;;;;;;5.18;1.77;;;;;;;10.57;100.00;102884.03;4988529;28;20052;-78
2023/05/30 06:09:39;;;;;;;2.85;2.17;;;;;;;10.56;100.00;102887.56;4990340;28;20535;-78
2023/05/30 06:12:23;;;;;;;3.58;1.83;;;;;;;10.57;100.00;102884.91;4991765;28;20087;-79
2023/05/30 06:15:07;;;;;;;4.82;1.90;;;;;;;10.61;100.00;102887.53;4989075;28;20044;-78
2023/05/30 06:17:51;;;;;;;5.82;2.13;;;;;;;10.61;100.00;102876.94;4988091;28;20044;-78
2023/05/30 06:20:35;;;;;;;6.80;1.80;;;;;;;10.65;100.00;102886.56;4971533;28;20068;-78
2023/05/30 06:23:19;;;;;;;3.80;2.05;;;;;;;10.64;100.00;102880.41;4989517;28;20853;-80
2023/05/30 06:26:03;;;;;;;4.47;1.70;;;;;;;10.68;100.00;102878.59;4978362;28;20060;-79
2023/05/30 06:28:49;;;;;;;3.80;2.03;;;;;;;10.67;100.00;102880.34;4994915;28;20045;-78
2023/05/30 06:31:34;;;;;;;4.55;1.75;;;;;;;10.73;100.00;102876.75;4977117;28;20045;-81
2023/05/30 06:34:18;;;;;;;3.75;1.80;;;;;;;10.76;100.00;102889.97;4994462;28;20160;-80
2023/05/30 06:37:02;;;;;;;3.45;1.60;;;;;;;10.80;100.00;102882.84;4996053;28;20061;-78
2023/05/30 06:39:47;;;;;;;3.00;1.67;;;;;;;10.82;100.00;102883.69;4981333;28;20056;-79
2023/05/30 06:42:32;;;;;;;5.00;2.25;;;;;;;10.80;100.00;102894.34;4967847;28;20080;-78
2023/05/30 06:45:16;;;;;;;7.93;1.85;;;;;;;10.80;100.00;102888.16;4993910;28;20053;-79
2023/05/30 06:48:01;;;;;;;3.53;2.00;;;;;;;10.83;100.00;102893.38;4997895;28;20068;-79
2023/05/30 06:50:45;;;;;;;5.10;1.83;;;;;;;10.86;100.00;102890.72;4996704;28;20582;-80
2023/05/30 06:53:29;;;;;;;5.15;2.00;;;;;;;10.90;100.00;102899.50;4992882;28;20081;-79
2023/05/30 06:56:13;;;;;;;4.18;1.55;;;;;;;10.89;100.00;102897.75;4981105;28;20119;-80
2023/05/30 06:58:57;;;;;;;2.75;1.50;;;;;;;10.92;100.00;102901.22;4989844;28;20241;-78
2023/05/30 07:01:41;;;;;;;1.55;1.10;;;;;;;10.95;100.00;102897.66;4989157;28;20061;-78
2023/05/30 07:04:26;;;;;;;4.72;1.50;;;;;;;10.95;100.00;102895.88;4974778;28;20045;-79
2023/05/30 07:07:11;;;;;;;2.47;1.42;;;;;;;10.95;100.00;102901.16;4972370;28;20057;-79
2023/05/30 07:09:55;;;;;;;2.55;1.30;;;;;;;10.95;100.00;102893.22;4975483;28;20249;-79
2023/05/30 07:12:39;;;;;;;2.92;1.58;;;;;;;10.97;100.00;102894.09;4977078;28;20075;-80
2023/05/30 07:15:25;;;;;;;2.42;1.52;;;;;;;10.98;100.00;102898.50;4990496;28;20040;-78
2023/05/30 07:18:09;;;;;;;2.38;1.60;;;;;;;11.02;100.00;102894.03;4989418;28;20428;-77
2023/05/30 07:20:54;;;;;;;1.85;1.35;;;;;;;11.06;100.00;102905.47;4979859;28;20624;-76
2023/05/30 07:23:37;;;;;;;4.10;1.58;;;;;;;11.10;100.00;102909.78;4979067;28;20084;-77
2023/05/30 07:26:22;;;;;;;3.92;1.20;;;;;;;11.13;100.00;102905.31;4994527;28;20516;-78
2023/05/30 07:29:07;;;;;;;1.27;1.05;;;;;;;11.06;100.00;102903.66;4992946;28;21076;-77
2023/05/30 07:31:51;;;;;;;2.80;1.23;;;;;;;11.03;100.00;102909.03;4978084;28;20107;-80
2023/05/30 07:34:35;;;;;;;2.35;1.42;;;;;;;11.00;100.00;102903.75;4977591;28;20049;-78
2023/05/30 07:37:19;;;;;;;2.30;1.30;;;;;;;11.03;100.00;102909.03;4990443;28;20100;-78
2023/05/30 07:40:07;;;;;;;5.28;1.20;;;;;;;11.05;100.00;102914.31;4967429;28;20067;-77
2023/05/30 07:42:51;;;;;;;2.67;1.20;;;;;;;11.14;100.00;102916.81;4989276;28;20051;-77
2023/05/30 07:45:35;;;;;;;4.63;1.20;;;;;;;11.21;100.00;102915.81;4994046;28;20428;-77
2023/05/30 07:48:19;;;;;;;1.40;0.95;;;;;;;11.27;100.00;102923.69;4992457;28;20045;-77
2023/05/30 07:51:03;;;;;;;1.20;1.10;;;;;;;11.35;100.00;102914.75;4994410;28;20053;-76
2023/05/30 07:53:47;;;;;;;1.63;1.15;;;;;;;11.40;100.00;102913.75;4972877;28;20049;-76
2023/05/30 07:56:32;;;;;;;2.38;1.40;;;;;;;11.44;100.00;102903.97;4989799;28;21991;-77
2023/05/30 07:59:15;;;;;;;2.08;1.10;;;;;;;11.39;100.00;102909.34;4987757;28;20111;-76
2023/05/30 08:01:59;;;;;;;3.10;1.35;;;;;;;11.45;100.00;102905.75;4987886;28;20060;-76
2023/05/30 08:04:44;;;;;;;2.60;1.65;;;;;;;11.49;100.00;102907.44;4985625;28;20127;-76
2023/05/30 08:07:30;;;;;;;2.33;1.40;;;;;;;11.49;100.00;102915.38;4968959;28;20141;-77
2023/05/30 08:10:14;;;;;;;3.85;1.58;;;;;;;11.53;100.00;102909.16;4989274;28;20138;-77
2023/05/30 08:12:58;;;;;;;1.88;0.90;;;;;;;11.58;100.00;102913.47;4979881;28;20053;-77
2023/05/30 08:15:43;;;;;;;1.17;1.00;;;;;;;11.57;100.00;102911.72;4972295;28;20048;-77
2023/05/30 08:18:31;;;;;;;1.92;1.15;;;;;;;11.52;100.00;102902.09;4988390;28;20536;-77
2023/05/30 08:21:15;;;;;;;4.07;1.08;;;;;;;11.49;100.00;102907.44;4983514;28;20049;-77
2023/05/30 08:24:00;;;;;;;2.05;1.20;;;;;;;11.49;100.00;102904.78;4981758;28;20084;-77
2023/05/30 08:26:45;;;;;;;2.53;1.40;;;;;;;11.47;100.00;102911.91;4985417;28;20048;-76
2023/05/30 08:29:30;;;;;;;2.15;1.10;;;;;;;11.47;100.00;102909.25;4987148;28;20068;-77
2023/05/30 08:32:14;;;;;;;1.65;1.05;;;;;;;11.56;100.00;102902.91;4969487;28;20600;-77
2023/05/30 08:34:58;;;;;;;1.15;0.98;;;;;;;11.64;100.00;102900.13;4982940;28;20142;-77
2023/05/30 08:37:45;;;;;;;1.40;1.00;;;;;;;11.75;100.00;102897.28;4982394;28;20056;-78
2023/05/30 08:40:29;;;;;;;1.92;0.82;;;;;;;11.87;100.00;102890.88;4970252;28;20099;-77
2023/05/30 08:43:13;;;;;;;1.65;1.00;;;;;;;11.99;100.00;102884.47;4990524;28;20044;-78
2023/05/30 08:45:57;;;;;;;3.53;1.00;;;;;;;12.18;100.00;102898.28;4990097;28;20169;-79
2023/05/30 08:48:42;;;;;;;2.22;1.33;;;;;;;12.28;100.00;102888.38;4989044;28;20188;-79
2023/05/30 08:51:29;;;;;;;1.23;0.85;;;;;;;12.41;100.00;102884.56;4987721;28;20053;-77
2023/05/30 08:54:18;;;;;;;2.00;0.90;;;;;;;12.56;100.00;102890.44;4978462;28;20072;-87
2023/05/30 08:57:09;;;;;;;1.00;0.65;;;;;;;12.66;100.00;102880.50;4987454;28;20412;-75
2023/05/30 09:07:00;;;;;;;1.70;0.82;;;;;;;12.80;100.00;102890.84;4984320;28;20060;-75
2023/05/30 09:10:15;;;;;;;0.68;0.68;;;;;;;12.76;100.00;102882.06;4980162;28;21461;-75
2023/05/30 09:13:06;;;;;;;1.02;0.80;;;;;;;12.70;100.00;102882.19;4977105;28;20060;-75
2023/05/30 09:15:50;;;;;;;1.67;1.05;;;;;;;12.67;100.00;102893.75;4978725;28;20057;-75
2023/05/30 09:18:35;;;;;;;1.25;1.10;;;;;;;12.58;100.00;102889.50;4971812;28;20553;-76
2023/05/30 09:21:20;;;;;;;2.10;0.98;;;;;;;12.46;100.00;102889.75;4985168;28;20111;-75
2023/05/30 09:24:05;;;;;;;1.00;0.90;;;;;;;12.43;100.00;102897.81;4986843;28;20045;-75
2023/05/30 09:27:01;;;;;;;1.15;1.00;;;;;;;12.40;100.00;102889.88;4987534;28;20415;-76
2023/05/30 09:29:45;;;;;;;1.00;0.77;;;;;;;12.34;100.00;102901.53;4987859;28;20064;-76
2023/05/30 09:32:31;;;;;;;1.10;1.00;;;;;;;12.32;100.00;102904.19;4988272;28;20052;-75
2023/05/30 09:35:16;;;;;;;2.55;0.93;;;;;;;12.29;100.00;102904.28;4964173;28;20057;-75
2023/05/30 09:38:04;;;;;;;2.15;1.00;;;;;;;12.31;100.00;102905.13;4986221;28;20076;-75
2023/05/30 09:40:50;;;;;;;1.02;0.90;;;;;;;12.40;100.00;102895.19;4982517;28;21121;-75
2023/05/30 09:43:35;;;;;;;3.13;1.05;;;;;;;12.57;100.00;102898.41;4983729;28;20048;-75
2023/05/30 09:46:22;;;;;;;1.40;0.95;;;;;;;12.67;100.00;102896.41;4967927;28;20135;-75
2023/05/30 09:49:13;;;;;;;0.82;0.80;;;;;;;12.50;100.00;102888.81;4967988;28;20847;-75
2023/05/30 09:51:59;;;;;;;1.25;1.10;;;;;;;12.41;100.00;102899.63;4971660;28;20164;-76
2023/05/30 09:54:43;;;;;;;0.90;0.90;;;;;;;12.32;100.00;102898.03;4984410;28;20092;-77
2023/05/30 09:57:27;;;;;;;2.83;1.30;;;;;;;12.24;100.00;102890.22;4984135;28;20048;-77
2023/05/30 10:00:15;;;;;;;1.40;1.10;;;;;;;12.23;100.00;102893.78;4983612;28;20064;-76
2023/05/30 10:02:59;;;;;;;2.08;1.17;;;;;;;12.24;100.00;102886.69;4967172;28;20108;-76
2023/05/30 10:05:56;;;;;;;1.38;1.20;;;;;;;12.31;100.00;102888.31;4979306;28;20151;-75
2023/05/30 10:08:46;;;;;;;1.38;1.27;;;;;;;12.34;100.00;102896.22;4980012;28;20215;-76
2023/05/30 10:11:30;;;;;;;1.42;1.20;;;;;;;12.41;100.00;102896.97;4983018;28;20060;-76
2023/05/30 10:14:14;;;;;;;1.30;1.20;;;;;;;12.52;100.00;102889.63;4981026;28;21839;-75
2023/05/30 10:17:00;;;;;;;1.13;1.00;;;;;;;12.65;100.00;102889.38;4986430;28;20108;-75
2023/05/30 10:19:50;;;;;;;2.67;1.10;;;;;;;12.73;100.00;102890.09;4963949;28;20131;-75
2023/05/30 10:22:42;;;;;;;2.30;0.90;;;;;;;12.69;100.00;102891.94;4965001;28;20626;-80
2023/05/30 10:25:27;;;;;;;1.98;1.30;;;;;;;12.61;100.00;102901.88;4968995;28;20068;-81
2023/05/30 10:28:18;;;;;;;1.65;1.00;;;;;;;12.58;100.00;102893.97;4966445;28;20053;-73
2023/05/30 10:31:03;;;;;;;1.05;0.90;;;;;;;12.57;100.00;102895.75;4960289;28;20056;-74
2023/05/30 10:33:49;;;;;;;1.20;0.90;;;;;;;12.56;100.00;102894.00;4984162;28;20089;-75
2023/05/30 10:36:34;;;;;;;1.27;1.00;;;;;;;12.57;100.00;102886.88;4976117;28;21069;-75
2023/05/30 10:39:33;;;;;;;2.65;0.90;;;;;;;12.56;100.00;102882.47;4976518;28;20104;-74
2023/05/30 10:42:27;;;;;;;2.30;0.90;;;;;;;12.55;100.00;102878.06;4964866;28;20108;-73
2023/05/30 10:45:19;;;;;;;1.30;0.80;;;;;;;12.60;100.00;102887.69;4964793;28;20057;-74
2023/05/30 10:48:24;;;;;;;0.75;0.75;;;;;;;12.58;100.00;102878.88;4966737;28;20356;-73
2023/05/30 10:51:10;;;;;;;0.80;0.80;;;;;;;12.71;100.00;102881.28;4983479;28;20060;-74
2023/05/30 10:53:57;;;;;;;1.52;0.85;;;;;;;12.86;100.00;102877.41;4961584;28;20045;-73
2023/05/30 10:56:42;;;;;;;1.40;0.80;;;;;;;13.01;100.00;102879.72;4967912;28;20567;-74
2023/05/30 10:59:26;;;;;;;0.70;0.65;;;;;;;13.12;100.00;102874.13;4983569;28;21994;-74
2023/05/30 11:02:11;;;;;;;1.05;0.80;;;;;;;13.24;100.00;102877.41;4968087;28;20107;-76
2023/05/30 11:05:06;;;;;;;1.38;0.90;;;;;;;13.18;100.00;102870.44;4957229;28;20548;-76
2023/05/30 11:07:53;;;;;;;0.90;0.80;;;;;;;13.14;100.00;102872.31;4973985;28;20483;-76
2023/05/30 11:10:38;;;;;;;1.23;0.70;;;;;;;13.21;100.00;102877.47;4967665;28;20044;-76
2023/05/30 11:13:25;;;;;;;0.98;0.80;;;;;;;13.18;100.00;102874.00;4972909;28;20053;-75
2023/05/30 11:16:25;;;;;;;1.77;0.85;;;;;;;13.23;100.00;102875.69;4987678;28;20582;-75
2023/05/30 11:19:11;;;;;;;1.17;0.85;;;;;;;13.24;100.00;102872.97;4990785;28;20057;-74
2023/05/30 11:22:00;;;;;;;1.23;0.80;;;;;;;13.27;100.00;102874.66;4975908;28;20053;-75
2023/05/30 11:24:47;;;;;;;2.60;0.73;;;;;;;13.36;100.00;102878.91;4975413;28;20069;-75
2023/05/30 11:27:31;;;;;;;1.88;1.00;;;;;;;13.38;100.00;102866.41;4977589;28;21117;-73
2023/05/30 11:30:19;;;;;;;1.90;0.80;;;;;;;13.42;100.00;102876.94;4984520;28;20107;-75
2023/05/30 11:33:04;;;;;;;1.00;1.00;;;;;;;13.39;100.00;102876.16;4981642;28;20136;-74
2023/05/30 11:35:49;;;;;;;2.97;1.80;;;;;;;13.29;100.00;102878.19;4974813;28;20631;-75
2023/05/30 11:38:33;;;;;;;1.58;1.00;;;;;;;13.28;100.00;102865.78;4972452;28;20048;-76
2023/05/30 11:41:17;;;;;;;1.30;1.08;;;;;;;13.31;100.00;102868.38;4993867;28;20069;-74
2023/05/30 11:44:02;;;;;;;1.42;1.33;;;;;;;13.38;100.00;102864.66;4994590;28;20061;-75
2023/05/30 11:46:58;;;;;;;1.00;0.90;;;;;;;13.39;100.00;102855.75;4994924;28;20056;-75
2023/05/30 11:49:46;;;;;;;1.58;1.10;;;;;;;13.46;100.00;102861.84;4992793;28;20045;-74
2023/05/30 11:52:37;;;;;;;3.25;1.10;;;;;;;13.50;100.00;102857.31;4992298;28;20740;-76
2023/05/30 11:55:22;;;;;;;1.77;1.00;;;;;;;13.56;100.00;102857.13;4995126;28;20409;-74
2023/05/30 11:58:06;;;;;;;1.48;0.90;;;;;;;13.70;100.00;102849.69;4973550;28;20136;-77
2023/05/30 12:00:51;;;;;;;1.15;0.93;;;;;;;13.78;100.00;102860.09;4988723;28;20032;-76
2023/05/30 12:03:36;;;;;;;0.85;0.82;;;;;;;13.88;100.00;102862.53;4993541;28;20999;-76
2023/05/30 12:06:21;;;;;;;0.80;0.80;;;;;;;13.95;100.00;102851.66;4981234;28;20110;-76
2023/05/30 12:09:05;;;;;;;1.10;0.80;;;;;;;13.97;100.00;102848.94;4993829;28;20115;-76
2023/05/30 12:11:55;;;;;;;0.63;0.63;;;;;;;14.10;100.00;102845.03;4991691;28;20052;-77
2023/05/30 12:14:42;;;;;;;0.85;0.80;;;;;;;14.37;100.00;102846.91;4993993;28;20119;-77
2023/05/30 12:17:26;;;;;;;0.70;0.70;;;;;;;14.44;100.00;102844.97;4978589;28;20124;-77
2023/05/30 12:20:13;;;;;;;3.35;1.25;;;;;;;14.50;100.00;102840.28;4992574;28;20141;-77
2023/05/30 12:23:04;;;;;;;1.65;0.70;;;;;;;14.50;100.00;102840.28;4991345;28;20960;-79
2023/05/30 12:25:52;;;;;;;0.70;0.70;;;;;;;14.47;100.00;102843.06;4988941;28;20064;-77
2023/05/30 12:28:49;;;;;;;0.98;0.90;;;;;;;14.56;100.00;102841.03;4991864;28;20119;-76
2023/05/30 12:31:34;;;;;;;2.03;0.90;;;;;;;14.62;100.00;102843.53;4992549;28;20102;-77
2023/05/30 12:34:21;;;;;;;1.15;0.90;;;;;;;14.52;100.00;102845.59;4975085;28;20044;-78
2023/05/30 12:37:06;;;;;;;2.10;1.00;;;;;;;14.49;100.00;102841.22;4986675;28;20165;-77
2023/05/30 12:39:52;;;;;;;2.38;0.75;;;;;;;14.35;100.00;102841.66;4988896;28;20045;-77
2023/05/30 12:42:36;;;;;;;1.27;0.80;;;;;;;14.31;100.00;102829.34;4989631;28;20045;-78
2023/05/30 12:45:23;;;;;;;1.02;0.90;;;;;;;14.26;100.00;102826.81;4991145;28;20187;-77
2023/05/30 12:48:07;;;;;;;1.95;0.75;;;;;;;14.24;100.00;102831.31;4989854;28;20150;-78
2023/05/30 12:50:52;;;;;;;1.20;1.00;;;;;;;14.23;100.00;102837.53;4974592;28;20521;-79
2023/05/30 12:53:36;;;;;;;1.27;0.95;;;;;;;14.18;100.00;102828.84;4975022;28;20096;-77